Time;durP1;ratioP1;P1;durP2;ratioP2;P2;SDS_P1;SDS_P2;PMS_P1;PMS_P2;Temp;Humidity;BMP_temperature;BMP_pressure;BME280_temperature;BME280_humidity;BME280_pressure;Samples;Min_cycle;Max_cycle;Signal;HPM_P1;HPM_P2
2023/07/08 00:00:42;;;;;;;;;8.00;7.67;;;;;26.44;56.63;99918.28;5036183;28;45430;-80
2023/07/08 00:03:08;;;;;;;;;9.00;9.00;;;;;26.40;58.05;99913.97;5034662;28;47334;-80
2023/07/08 00:05:34;;;;;;;;;8.00;8.00;;;;;26.39;57.23;99913.09;5018014;28;45273;-80
2023/07/08 00:07:59;;;;;;;;;9.00;8.67;;;;;26.27;58.31;99902.09;5016316;28;47937;-80
2023/07/08 00:10:27;;;;;;;;;8.33;8.33;;;;;26.27;60.37;99921.69;5018383;28;45488;-80
2023/07/08 00:12:55;;;;;;;;;9.00;8.33;;;;;26.04;61.05;99900.44;5028603;28;45522;-80
2023/07/08 00:15:25;;;;;;;;;12.00;11.33;;;;;26.22;60.39;99928.19;5033409;28;45525;-80
2023/07/08 00:17:50;;;;;;;;;10.33;9.00;;;;;26.28;61.07;99925.25;5018202;28;46121;-80
2023/07/08 00:20:32;;;;;;;;;12.00;11.33;;;;;26.29;61.97;99927.84;5032166;28;46118;-80
2023/07/08 00:23:00;;;;;;;;;13.00;11.33;;;;;26.22;63.11;99929.06;5016333;28;45510;-80
2023/07/08 00:25:26;;;;;;;;;11.33;9.00;;;;;25.98;63.00;99901.56;5018997;28;46168;-80
2023/07/08 00:27:51;;;;;;;;;13.00;12.33;;;;;26.12;62.51;99925.06;5019240;28;45521;-80
2023/07/08 00:30:29;;;;;;;;;10.67;10.00;;;;;26.02;63.31;99911.19;5023555;28;46172;-80
2023/07/08 00:32:55;;;;;;;;;11.00;10.67;;;;;26.09;63.62;99934.09;5037603;28;45527;-80
2023/07/08 00:35:42;;;;;;;;;12.00;11.33;;;;;25.99;65.16;99933.63;5037946;28;45363;-80
2023/07/08 00:38:15;;;;;;;;;11.67;9.67;;;;;25.85;64.14;99916.41;5013215;28;46738;-80
2023/07/08 00:41:12;;;;;;;;;12.00;12.00;;;;;25.87;64.48;99923.44;5019637;28;45797;-80
2023/07/08 00:43:42;;;;;;;;;12.67;11.00;;;;;25.91;63.97;99919.72;4985687;28;45482;-80
2023/07/08 00:46:24;;;;;;;;;12.67;12.00;;;;;25.74;65.15;99912.38;5030346;28;45576;-80
2023/07/08 00:48:52;;;;;;;;;13.00;12.33;;;;;25.69;65.89;99918.88;5032541;28;46762;-80
2023/07/08 00:51:21;;;;;;;;;14.67;12.00;;;;;25.64;65.21;99919.06;5016497;28;45872;-80
2023/07/08 00:53:46;;;;;;;;;13.00;12.00;;;;;25.52;65.84;99915.09;5023037;28;45439;-80
2023/07/08 00:56:26;;;;;;;;;15.67;14.33;;;;;25.47;67.31;99910.91;5026353;28;45584;-80
2023/07/08 00:59:04;;;;;;;;;13.33;12.67;;;;;25.56;65.88;99926.53;5030820;28;47669;-80
2023/07/08 01:01:34;;;;;;;;;15.67;13.33;;;;;25.47;67.43;99913.56;5036975;28;45380;-80
2023/07/08 01:04:06;;;;;;;;;12.67;12.67;;;;;25.40;66.71;99915.59;5018894;28;45428;-80
2023/07/08 01:06:39;;;;;;;;;14.00;13.00;;;;;25.37;66.67;99910.41;5035205;28;45573;-80
2023/07/08 01:09:10;;;;;;;;;14.00;13.00;;;;;25.24;66.11;99895.78;5036546;28;46022;-80
2023/07/08 01:11:39;;;;;;;;;14.67;13.00;;;;;25.23;67.14;99910.06;5037010;28;45354;-80
2023/07/08 01:14:07;;;;;;;;;13.00;12.00;;;;;25.25;67.56;99909.09;5036881;28;45364;-80
2023/07/08 01:16:33;;;;;;;;;13.67;13.00;;;;;25.29;67.32;99917.88;5036677;28;45458;-80
2023/07/08 01:19:00;;;;;;;;;12.67;12.67;;;;;25.09;66.87;99875.84;5034966;28;46313;-80
2023/07/08 01:21:38;;;;;;;;;12.00;12.00;;;;;25.29;66.67;99915.19;5021125;28;45613;-79
2023/07/08 01:24:09;;;;;;;;;15.00;13.33;;;;;24.97;67.69;99845.19;5025804;28;45525;-80
2023/07/08 01:26:39;;;;;;;;;13.00;12.00;;;;;25.33;67.61;99914.13;5026868;28;45427;-80
2023/07/08 01:29:07;;;;;;;;;18.00;15.33;;;;;25.27;67.55;99901.00;5034979;28;47173;-80
2023/07/08 01:31:34;;;;;;;;;17.67;16.00;;;;;25.44;67.23;99919.88;5024652;28;45522;-80
2023/07/08 01:33:59;;;;;;;;;13.00;12.00;;;;;25.36;67.32;99916.66;5030882;28;45473;-80
2023/07/08 01:36:29;;;;;;;;;15.00;14.00;;;;;25.46;67.29;99934.06;5020273;28;45826;-80
2023/07/08 01:38:55;;;;;;;;;16.67;14.33;;;;;25.40;68.49;99926.28;5027726;28;46610;-80
2023/07/08 01:41:20;;;;;;;;;16.33;14.67;;;;;25.27;67.43;99906.34;5004558;28;45455;-80
2023/07/08 01:43:46;;;;;;;;;13.00;12.00;;;;;25.29;68.07;99929.44;5026984;28;45979;-80
2023/07/08 01:46:17;;;;;;;;;16.33;15.33;;;;;25.33;67.75;99927.50;5031621;28;45324;-80
2023/07/08 01:48:48;;;;;;;;;15.00;13.67;;;;;25.15;67.08;99891.66;5024008;28;45517;-80
2023/07/08 01:51:14;;;;;;;;;15.33;13.00;;;;;25.23;67.67;99908.28;5036339;28;45510;-80
2023/07/08 01:53:42;;;;;;;;;13.00;12.00;;;;;25.23;67.31;99905.63;5019010;28;45415;-79
2023/07/08 01:56:09;;;;;;;;;13.00;10.67;;;;;25.23;67.64;99910.97;5009727;28;45527;-80
2023/07/08 01:58:34;;;;;;;;;15.67;13.33;;;;;25.35;67.03;99925.63;5021095;28;46261;-79
2023/07/08 02:01:01;;;;;;;;;12.67;12.67;;;;;25.49;67.06;99941.97;5020422;28;45680;-80
2023/07/08 02:03:27;;;;;;;;;13.67;13.67;;;;;25.49;67.67;99943.78;5031802;28;45392;-80
2023/07/08 02:05:53;;;;;;;;;16.00;14.33;;;;;25.43;67.80;99944.91;5036459;28;45563;-80
2023/07/08 02:08:19;;;;;;;;;17.00;15.67;;;;;24.90;67.31;99875.75;5023670;28;45370;-80
2023/07/08 02:10:50;;;;;;;;;14.33;12.00;;;;;25.32;66.68;99950.66;5031737;28;45501;-80
2023/07/08 02:13:16;;;;;;;;;13.00;13.00;;;;;25.30;67.50;99947.19;5025084;28;45294;-80
2023/07/08 02:15:41;;;;;;;;;14.33;13.00;;;;;25.24;67.04;99949.25;5015004;28;45599;-80
2023/07/08 02:18:07;;;;;;;;;20.33;16.00;;;;;25.22;68.00;99948.44;5016383;28;45994;-80
2023/07/08 02:20:32;;;;;;;;;16.00;14.33;;;;;25.22;67.35;99946.63;5031919;28;46196;-80
2023/07/08 02:22:58;;;;;;;;;10.33;10.00;;;;;25.13;67.23;99947.84;5016802;28;45293;-80
2023/07/08 02:25:23;;;;;;;;;10.00;9.00;;;;;25.19;65.72;99942.25;5026803;28;45981;-81
2023/07/08 02:27:49;;;;;;;;;12.33;10.67;;;;;25.17;65.31;99943.25;5020762;28;46835;-80
2023/07/08 02:30:14;;;;;;;;;9.33;7.67;;;;;25.13;65.32;99939.84;5030352;28;45572;-80
2023/07/08 02:32:41;;;;;;;;;10.67;9.00;;;;;25.15;64.88;99940.63;5014958;28;45535;-80
2023/07/08 02:35:08;;;;;;;;;10.00;8.67;;;;;25.02;64.33;99921.53;5006874;28;45532;-80
2023/07/08 02:37:34;;;;;;;;;10.67;9.33;;;;;24.96;64.42;99918.25;5043460;28;47674;-80
2023/07/08 02:40:00;;;;;;;;;9.33;9.00;;;;;24.92;65.25;99919.28;5021374;28;45522;-80
2023/07/08 02:42:26;;;;;;;;;10.33;9.33;;;;;24.99;65.02;99932.34;5039302;28;45422;-80
2023/07/08 02:44:51;;;;;;;;;11.00;8.33;;;;;24.81;64.61;99909.03;5038636;28;46517;-80
2023/07/08 02:47:17;;;;;;;;;7.00;7.00;;;;;24.90;64.46;99939.84;5038991;28;46282;-80
2023/07/08 02:49:42;;;;;;;;;11.67;10.33;;;;;24.89;64.10;99928.31;5036015;28;45229;-80
2023/07/08 02:52:08;;;;;;;;;8.33;7.33;;;;;24.74;63.80;99915.53;5018242;28;45499;-80
2023/07/08 02:54:34;;;;;;;;;9.33;8.67;;;;;24.83;64.01;99944.59;5030464;28;46107;-80
2023/07/08 02:57:00;;;;;;;;;9.33;8.33;;;;;24.85;64.57;99942.72;5037718;28;45451;-80
2023/07/08 02:59:27;;;;;;;;;9.00;9.00;;;;;24.84;64.24;99946.31;5023848;28;45996;-80
2023/07/08 03:01:53;;;;;;;;;9.00;9.00;;;;;24.86;63.77;99940.91;5025756;28;45562;-80
2023/07/08 03:04:21;;;;;;;;;11.00;9.00;;;;;24.80;64.12;99947.34;5039177;28;45455;-80
2023/07/08 03:06:49;;;;;;;;;10.00;9.00;;;;;24.72;63.91;99946.78;5039517;28;46237;-80
2023/07/08 03:09:15;;;;;;;;;9.33;9.00;;;;;24.79;63.86;99942.97;5034205;28;45393;-80
2023/07/08 03:11:40;;;;;;;;;8.67;8.67;;;;;24.79;64.08;99961.66;5019303;28;45561;-80
2023/07/08 03:14:06;;;;;;;;;10.00;9.33;;;;;24.79;63.52;99959.00;5033509;28;45810;-80
2023/07/08 03:16:32;;;;;;;;;13.00;9.00;;;;;24.77;63.32;99956.38;5026288;28;45665;-80
2023/07/08 03:18:58;;;;;;;;;7.00;7.00;;;;;24.67;63.47;99949.63;5022848;28;45668;-78
2023/07/08 03:21:24;;;;;;;;;12.67;10.67;;;;;24.64;64.04;99947.06;5019956;28;45552;-80
2023/07/08 03:23:51;;;;;;;;;10.33;8.33;;;;;24.64;64.13;99960.41;5016883;28;45400;-79
2023/07/08 03:26:21;;;;;;;;;11.00;11.00;;;;;24.66;65.32;99974.59;5017304;28;47721;-78
2023/07/08 03:28:47;;;;;;;;;15.33;15.00;;;;;24.41;65.81;99930.09;5016065;28;45482;-79
2023/07/08 03:31:13;;;;;;;;;17.33;16.33;;;;;24.61;67.27;99981.88;5027043;28;45386;-79
2023/07/08 03:33:38;;;;;;;;;20.00;19.67;;;;;24.43;67.54;99962.03;5025403;28;45413;-79
2023/07/08 03:36:11;;;;;;;;;20.67;18.67;;;;;24.29;68.63;99965.25;5026889;28;45481;-80
2023/07/08 03:38:36;;;;;;;;;16.67;14.67;;;;;24.25;68.21;99955.56;5018607;28;45594;-80
2023/07/08 03:41:02;;;;;;;;;18.33;16.33;;;;;24.28;68.35;99960.81;5018573;28;45358;-80
2023/07/08 03:43:27;;;;;;;;;21.67;21.00;;;;;24.38;69.55;99986.25;5033814;28;45469;-80
2023/07/08 03:45:53;;;;;;;;;20.33;17.67;;;;;24.18;69.20;99957.59;5033480;28;48454;-80
2023/07/08 03:48:19;;;;;;;;;18.00;17.67;;;;;24.25;69.32;99968.91;5033586;28;45464;-80
2023/07/08 03:50:44;;;;;;;;;21.00;15.33;;;;;24.19;69.77;99974.47;5036407;28;45495;-80
2023/07/08 03:53:10;;;;;;;;;20.00;18.00;;;;;24.06;69.64;99973.19;5037440;28;45856;-79
2023/07/08 03:55:35;;;;;;;;;19.33;19.00;;;;;24.22;69.59;99985.06;5035388;28;45481;-80
2023/07/08 03:58:01;;;;;;;;;20.67;20.00;;;;;24.12;69.03;99975.63;5037430;28;45510;-80
2023/07/08 04:00:26;;;;;;;;;19.67;18.67;;;;;24.24;69.59;100001.88;5037939;28;45406;-80
2023/07/08 04:02:52;;;;;;;;;17.67;17.00;;;;;24.19;68.40;99999.38;5038893;28;45559;-79
2023/07/08 04:05:20;;;;;;;;;14.00;12.67;;;;;24.11;67.71;99987.22;5037328;28;48043;-80
2023/07/08 04:07:46;;;;;;;;;12.33;12.33;;;;;24.19;66.88;100003.81;5038624;28;45398;-80
2023/07/08 04:10:13;;;;;;;;;14.00;12.00;;;;;24.12;66.74;100013.84;5038996;28;45502;-80
2023/07/08 04:12:39;;;;;;;;;13.00;11.00;;;;;23.93;66.62;99996.72;5039505;28;45454;-80
2023/07/08 04:15:08;;;;;;;;;12.33;11.00;;;;;23.78;66.81;99963.47;5037911;28;45336;-80
2023/07/08 04:17:43;;;;;;;;;12.33;11.00;;;;;24.17;66.37;100019.91;5039510;28;45323;-79
2023/07/08 04:20:10;;;;;;;;;10.00;10.00;;;;;24.13;66.19;100004.03;5034023;28;45477;-79
2023/07/08 04:22:37;;;;;;;;;13.00;12.33;;;;;24.24;65.79;100015.22;5021575;28;45570;-80
2023/07/08 04:25:03;;;;;;;;;12.67;12.00;;;;;24.24;65.97;100004.56;5033138;28;45385;-80
2023/07/08 04:27:30;;;;;;;;;10.33;10.33;;;;;24.39;65.65;100017.38;5031018;28;45438;-80
2023/07/08 04:29:56;;;;;;;;;10.67;10.33;;;;;24.39;65.33;100017.38;5020744;28;45419;-80
2023/07/08 04:32:24;;;;;;;;;13.33;11.00;;;;;24.42;64.96;100019.03;5022733;28;45441;-79
2023/07/08 04:34:51;;;;;;;;;16.33;14.33;;;;;24.44;65.62;100019.88;5042237;28;46739;-80
2023/07/08 04:37:17;;;;;;;;;13.33;12.67;;;;;24.46;65.21;100025.16;5033844;28;45549;-80
2023/07/08 04:39:43;;;;;;;;;15.33;14.67;;;;;24.49;65.58;100019.69;5024457;28;45456;-80
2023/07/08 04:42:08;;;;;;;;;13.33;12.67;;;;;24.49;64.88;100017.03;5038898;28;45347;-80
2023/07/08 04:44:34;;;;;;;;;15.00;13.33;;;;;24.49;64.98;100033.03;5037511;28;45559;-80
2023/07/08 04:47:01;;;;;;;;;13.67;13.67;;;;;24.38;65.26;100010.28;5019371;28;45335;-80
2023/07/08 04:49:33;;;;;;;;;15.00;13.67;;;;;24.47;65.38;100018.88;5020988;28;45443;-81
2023/07/08 04:51:59;;;;;;;;;16.67;15.67;;;;;24.29;66.15;100015.97;5003417;28;45410;-80
2023/07/08 04:54:25;;;;;;;;;14.33;13.33;;;;;24.16;66.32;100003.94;5027235;28;45491;-80
2023/07/08 04:56:52;;;;;;;;;13.00;10.67;;;;;24.12;65.88;100008.53;5027399;28;45600;-80
2023/07/08 04:59:21;;;;;;;;;14.33;12.33;;;;;24.08;66.08;99998.88;5018254;28;45325;-80
2023/07/08 05:01:47;;;;;;;;;15.00;13.67;;;;;24.14;66.85;100025.34;5024931;28;45549;-80
2023/07/08 05:04:16;;;;;;;;;14.33;12.67;;;;;24.18;66.47;100028.78;5019535;28;46274;-80
2023/07/08 05:06:42;;;;;;;;;15.33;10.67;;;;;24.27;65.95;100032.94;5017682;28;45803;-81
2023/07/08 05:09:08;;;;;;;;;17.67;15.33;;;;;24.26;66.55;100026.72;5022741;28;46096;-80
2023/07/08 05:11:35;;;;;;;;;18.67;17.33;;;;;24.26;67.01;100029.41;5024994;28;45458;-80
2023/07/08 05:14:03;;;;;;;;;15.67;15.00;;;;;24.24;67.17;100027.72;5020544;28;46251;-80
2023/07/08 05:16:29;;;;;;;;;17.00;15.33;;;;;24.28;67.04;100032.03;5030182;28;45507;-80
2023/07/08 05:18:55;;;;;;;;;14.00;13.67;;;;;24.40;66.52;100045.78;5028282;28;45480;-80
2023/07/08 05:21:24;;;;;;;;;14.33;12.67;;;;;24.51;66.19;100045.47;5029439;28;45622;-81
2023/07/08 05:23:55;;;;;;;;;13.33;11.33;;;;;24.58;65.62;100040.75;5019141;28;45375;-80
2023/07/08 05:26:21;;;;;;;;;14.00;14.00;;;;;24.59;65.90;100050.50;5038237;28;45616;-80
2023/07/08 05:28:47;;;;;;;;;15.67;13.33;;;;;24.61;66.06;100052.22;5026475;28;45560;-77
2023/07/08 05:31:13;;;;;;;;;16.00;14.67;;;;;24.50;65.92;100021.44;5014841;28;45510;-80
2023/07/08 05:33:38;;;;;;;;;18.00;16.00;;;;;24.69;66.60;100048.38;5016291;28;46262;-80
2023/07/08 05:36:04;;;;;;;;;18.33;16.33;;;;;24.56;66.46;100042.63;5023652;28;46034;-80
2023/07/08 05:38:29;;;;;;;;;12.00;12.00;;;;;24.89;65.26;100074.34;5032960;28;45545;-81
2023/07/08 05:40:57;;;;;;;;;14.67;13.67;;;;;25.00;65.04;100081.06;5019344;28;45572;-80
2023/07/08 05:43:23;;;;;;;;;13.33;12.33;;;;;25.20;64.03;100092.81;5016577;28;45485;-81
2023/07/08 05:45:49;;;;;;;;;15.67;13.67;;;;;25.22;63.88;100069.59;5021603;28;45517;-79
2023/07/08 05:48:14;;;;;;;;;16.00;15.67;;;;;25.42;63.46;100076.84;5016244;28;45525;-80
2023/07/08 05:50:41;;;;;;;;;13.00;12.00;;;;;25.53;63.20;100079.97;5016946;28;45264;-80
2023/07/08 05:53:10;;;;;;;;;14.33;13.00;;;;;25.76;62.22;100099.59;5015368;28;45497;-80
2023/07/08 05:56:09;;;;;;;;;14.00;14.00;;;;;25.85;61.49;100093.88;5017805;28;45553;-78
2023/07/08 05:58:34;;;;;;;;;15.67;13.67;;;;;25.79;60.97;100096.81;5009682;28;45450;-78
2023/07/08 06:01:00;;;;;;;;;14.00;13.33;;;;;25.89;60.91;100087.47;5014113;28;45692;-76
2023/07/08 06:03:26;;;;;;;;;12.00;11.00;;;;;26.06;60.56;100089.47;5014069;28;46038;-78
2023/07/08 06:05:53;;;;;;;;;14.67;12.00;;;;;26.29;59.83;100090.31;5015696;28;45490;-77
2023/07/08 06:08:19;;;;;;;;;13.00;13.00;;;;;27.98;56.78;100084.47;5015998;28;45371;-78
2023/07/08 06:10:45;;;;;;;;;11.33;11.33;;;;;29.99;52.08;100048.63;5004001;28;45452;-81
2023/07/08 06:13:12;;;;;;;;;14.00;14.00;;;;;31.82;47.18;100084.03;5017397;28;46155;-81
2023/07/08 06:15:39;;;;;;;;;16.00;14.33;;;;;32.88;44.50;100089.50;5027968;28;45455;-77
2023/07/08 06:18:05;;;;;;;;;14.33;14.33;;;;;33.73;43.82;100049.13;5026569;28;45502;-80
2023/07/08 06:20:30;;;;;;;;;14.00;13.00;;;;;34.90;41.17;100079.97;5009557;28;45461;-81
2023/07/08 06:22:56;;;;;;;;;13.33;13.00;;;;;35.84;40.19;100098.63;5016200;28;45609;-80
2023/07/08 06:25:22;;;;;;;;;13.00;12.33;;;;;36.58;39.85;100113.28;5014415;28;45693;-81
2023/07/08 06:27:47;;;;;;;;;13.33;13.33;;;;;37.50;36.69;100109.81;5014060;28;45523;-80
2023/07/08 06:30:13;;;;;;;;;14.00;14.00;;;;;37.72;35.46;100106.88;5014495;28;45462;-78
2023/07/08 06:32:39;;;;;;;;;12.67;11.67;;;;;38.12;35.34;100108.72;5014419;28;45513;-77
2023/07/08 06:35:05;;;;;;;;;11.00;11.00;;;;;38.54;35.09;100121.19;5000600;28;45469;-79
2023/07/08 06:37:31;;;;;;;;;13.67;10.67;;;;;39.31;33.78;100128.38;5015950;28;45558;-80
2023/07/08 06:39:56;;;;;;;;;14.00;13.00;;;;;39.48;32.08;100120.44;5024993;28;45474;-81
2023/07/08 06:42:22;;;;;;;;;11.67;11.00;;;;;39.64;32.66;100134.28;5020397;28;47017;-79
2023/07/08 06:44:50;;;;;;;;;13.00;13.00;;;;;40.30;32.32;100145.97;5029598;28;45488;-80
2023/07/08 06:47:20;;;;;;;;;13.33;13.33;;;;;40.86;31.44;100136.56;5014263;28;45555;-77
2023/07/08 06:49:46;;;;;;;;;12.33;11.67;;;;;41.45;30.04;100147.72;5016641;28;45727;-77
2023/07/08 06:52:12;;;;;;;;;11.33;11.00;;;;;42.16;29.69;100158.44;5014627;28;46078;-78
2023/07/08 06:54:38;;;;;;;;;13.33;13.33;;;;;42.38;29.34;100162.41;5021658;28;46275;-79
2023/07/08 06:57:04;;;;;;;;;15.00;15.00;;;;;42.58;29.16;100157.47;5014705;28;45442;-75
2023/07/08 06:59:29;;;;;;;;;15.00;12.33;;;;;43.19;28.71;100144.19;5014878;28;45533;-74
2023/07/08 07:01:55;;;;;;;;;14.33;13.00;;;;;43.75;28.97;100153.31;5014892;28;45989;-74
2023/07/08 07:04:20;;;;;;;;;12.67;11.33;;;;;44.38;27.66;100156.88;5013170;28;45543;-74
2023/07/08 07:06:46;;;;;;;;;9.67;9.67;;;;;44.66;26.92;100156.34;5022096;28;45400;-76
2023/07/08 07:09:11;;;;;;;;;13.00;13.00;;;;;44.99;25.95;100164.34;5015513;28;45285;-74
2023/07/08 07:11:37;;;;;;;;;13.00;11.67;;;;;45.33;25.53;100180.34;5015294;28;45428;-74
2023/07/08 07:14:03;;;;;;;;;11.67;11.67;;;;;45.94;24.87;100184.78;5015356;28;45477;-75
2023/07/08 07:16:29;;;;;;;;;9.00;8.33;;;;;46.44;24.31;100183.03;5015603;28;45376;-75
2023/07/08 07:18:55;;;;;;;;;12.67;12.00;;;;;46.86;23.47;100192.38;5015357;28;45269;-77
2023/07/08 07:21:22;;;;;;;;;12.33;11.33;;;;;46.86;23.64;100195.16;5016943;28;45520;-74
2023/07/08 07:23:47;;;;;;;;;13.00;12.00;;;;;47.28;22.43;100185.03;5018875;28;46773;-75
2023/07/08 07:26:13;;;;;;;;;9.00;9.00;;;;;47.41;23.56;100209.16;5018832;28;45532;-75
2023/07/08 07:28:39;;;;;;;;;13.00;11.67;;;;;47.63;22.85;100201.63;5018022;28;45485;-75
2023/07/08 07:31:06;;;;;;;;;11.33;11.33;;;;;47.49;22.87;100202.59;5018744;28;45502;-75
2023/07/08 07:33:32;;;;;;;;;10.00;10.00;;;;;48.15;22.69;100215.91;5017816;28;45450;-74
2023/07/08 07:35:58;;;;;;;;;12.67;11.67;;;;;46.65;23.84;100204.28;5017303;28;45368;-75
2023/07/08 07:38:28;;;;;;;;;9.00;9.00;;;;;45.02;26.12;100219.06;5019492;28;45365;-74
2023/07/08 07:40:54;;;;;;;;;12.00;11.00;;;;;44.81;25.48;100211.47;5018756;28;45558;-75
2023/07/08 07:43:20;;;;;;;;;13.00;12.33;;;;;45.93;24.85;100214.28;5017059;28;45454;-74
2023/07/08 07:45:50;;;;;;;;;9.00;9.00;;;;;45.06;25.70;100220.41;5019800;28;45664;-75
2023/07/08 07:48:15;;;;;;;;;13.00;13.00;;;;;44.78;25.41;100234.75;5018366;28;45435;-74
2023/07/08 07:50:45;;;;;;;;;14.00;12.00;;;;;44.34;26.34;100229.03;5016480;28;46525;-75
2023/07/08 07:53:11;;;;;;;;;12.33;12.00;;;;;44.91;26.16;100239.69;5018422;28;45351;-74
2023/07/08 07:55:37;;;;;;;;;11.67;11.00;;;;;46.03;24.49;100239.72;5018198;28;45172;-76
2023/07/08 07:58:02;;;;;;;;;16.00;12.33;;;;;45.20;25.23;100229.75;5018230;28;45351;-77
2023/07/08 08:00:29;;;;;;;;;15.00;14.00;;;;;44.25;26.53;100240.13;5017919;28;46336;-77
2023/07/08 08:02:55;;;;;;;;;12.00;12.00;;;;;44.78;26.25;100237.50;5030389;28;45513;-75
2023/07/08 08:05:20;;;;;;;;;11.67;11.67;;;;;44.63;26.26;100240.22;5018358;28;45447;-78
2023/07/08 08:07:47;;;;;;;;;11.33;10.67;;;;;43.69;27.12;100239.31;5018488;28;45233;-77
2023/07/08 08:10:13;;;;;;;;;13.33;13.33;;;;;42.75;27.74;100229.75;5018970;28;45955;-78
2023/07/08 08:12:39;;;;;;;;;12.00;12.00;;;;;42.60;28.24;100246.94;5017886;28;45432;-78
2023/07/08 08:15:05;;;;;;;;;17.00;17.00;;;;;43.78;27.53;100226.41;5016978;28;45615;-78
2023/07/08 08:17:30;;;;;;;;;12.67;12.00;;;;;45.71;25.27;100240.97;5018501;28;45407;-78
2023/07/08 08:19:56;;;;;;;;;10.67;10.67;;;;;45.94;24.54;100246.34;5018101;28;45415;-78
2023/07/08 08:22:22;;;;;;;;;11.33;11.33;;;;;44.67;26.07;100249.00;5018233;28;45468;-77
2023/07/08 08:24:47;;;;;;;;;14.67;14.67;;;;;42.88;27.55;100250.22;5016528;28;45435;-77
2023/07/08 08:27:13;;;;;;;;;13.33;12.33;;;;;42.81;28.62;100253.78;5018361;28;45681;-78
2023/07/08 08:29:38;;;;;;;;;12.33;12.00;;;;;42.76;28.09;100253.44;5017534;28;46170;-77
2023/07/08 08:32:04;;;;;;;;;16.00;13.67;;;;;42.81;28.56;100254.66;5017100;28;45486;-77
2023/07/08 08:34:31;;;;;;;;;18.67;18.67;;;;;43.34;27.85;100240.59;5018213;28;45467;-77
2023/07/08 08:36:57;;;;;;;;;19.00;17.67;;;;;44.25;27.09;100244.75;5018556;28;45477;-77
2023/07/08 08:39:22;;;;;;;;;14.33;14.00;;;;;45.82;25.02;100269.97;5018308;28;46061;-77
2023/07/08 08:41:53;;;;;;;;;58.50;47.50;;;;;45.05;25.64;100249.88;5017986;28;45325;-78
2023/07/08 08:44:28;;;;;;;;;15.00;15.00;;;;;43.84;27.14;100261.44;5018330;28;45321;-77
2023/07/08 08:46:57;;;;;;;;;16.00;16.00;;;;;42.11;29.24;100266.84;5016905;28;45702;-77
2023/07/08 08:49:37;;;;;;;;;14.33;12.67;;;;;41.48;29.77;100258.91;5017662;28;46164;-77
2023/07/08 08:52:02;;;;;;;;;13.67;13.33;;;;;40.97;30.08;100249.63;5017827;28;45422;-77
2023/07/08 08:54:30;;;;;;;;;12.00;12.00;;;;;40.80;31.23;100251.38;5017649;28;45527;-77
2023/07/08 08:57:39;;;;;;;;;18.00;14.33;;;;;41.60;29.84;100268.63;5018073;28;45221;-77
2023/07/08 09:00:12;;;;;;;;;11.33;11.33;;;;;40.93;30.95;100268.28;5016190;28;46581;-77
2023/07/08 09:02:53;;;;;;;;;10.67;10.33;;;;;40.31;31.66;100268.13;5015867;28;46353;-77
2023/07/08 09:05:19;;;;;;;;;12.00;11.67;;;;;39.57;31.87;100269.84;5018058;28;45277;-77
2023/07/08 09:08:01;;;;;;;;;47.50;40.25;;;;;38.77;33.62;100269.19;5016547;28;45318;-77
2023/07/08 09:10:46;;;;;;;;;18.33;18.00;;;;;38.47;34.57;100281.91;5017373;28;45504;-77
2023/07/08 09:13:21;;;;;;;;;13.33;13.33;;;;;38.72;34.18;100283.28;5016150;28;45294;-77
2023/07/08 09:15:54;;;;;;;;;16.33;13.67;;;;;39.99;32.62;100265.81;5017767;28;45445;-77
2023/07/08 09:18:32;;;;;;;;;13.33;13.33;;;;;40.68;31.02;100278.09;5017897;28;45304;-78
2023/07/08 09:21:06;;;;;;;;;25.33;23.00;;;;;40.05;32.23;100277.03;5017252;28;46159;-77
2023/07/08 09:23:35;;;;;;;;;15.00;14.33;;;;;39.84;32.48;100274.50;5017639;28;45359;-77
2023/07/08 09:26:07;;;;;;;;;13.33;12.33;;;;;39.83;32.43;100280.97;5017621;28;45301;-77
2023/07/08 09:28:42;;;;;;;;;19.00;17.67;;;;;39.60;33.38;100293.31;5016269;28;45577;-77
2023/07/08 09:31:24;;;;;;;;;18.67;17.67;;;;;39.20;33.63;100281.56;5017330;28;45521;-77
2023/07/08 09:34:15;;;;;;;;;15.33;13.67;;;;;38.72;33.80;100298.75;5017630;28;45512;-77
2023/07/08 09:36:43;;;;;;;;;13.00;12.00;;;;;38.88;33.76;100287.28;5014242;28;45369;-77
2023/07/08 09:39:14;;;;;;;;;14.00;13.00;;;;;38.78;34.24;100299.06;5017196;28;45382;-77
2023/07/08 09:41:42;;;;;;;;;9.33;8.67;;;;;38.35;35.13;100285.78;5016624;28;45489;-77
2023/07/08 09:44:17;;;;;;;;;14.67;13.67;;;;;37.90;35.41;100258.88;5016492;28;45465;-77
2023/07/08 09:46:43;;;;;;;;;13.00;11.67;;;;;38.23;35.25;100297.81;5016949;28;45447;-77
2023/07/08 09:49:17;;;;;;;;;10.67;10.67;;;;;38.17;35.41;100294.63;5017219;28;45459;-77
2023/07/08 09:51:42;;;;;;;;;14.00;13.33;;;;;38.31;34.89;100296.09;5015240;28;46731;-77
2023/07/08 09:54:08;;;;;;;;;12.33;12.33;;;;;38.44;34.80;100294.97;5016854;28;45339;-77
2023/07/08 09:56:35;;;;;;;;;12.00;12.00;;;;;38.23;35.41;100292.34;5016887;28;45501;-77
2023/07/08 09:59:01;;;;;;;;;13.33;12.33;;;;;37.85;35.74;100286.56;5017216;28;45352;-77
2023/07/08 10:01:28;;;;;;;;;12.33;12.33;;;;;37.23;36.77;100299.25;5016497;28;45529;-77
2023/07/08 10:03:59;;;;;;;;;13.00;11.33;;;;;36.82;37.73;100301.72;5015194;28;45757;-77
2023/07/08 10:06:27;;;;;;;;;16.33;14.67;;;;;37.00;37.29;100299.31;5016682;28;45546;-77
2023/07/08 10:09:02;;;;;;;;;14.00;12.00;;;;;36.98;37.46;100306.72;5017105;28;45477;-77
2023/07/08 10:11:36;;;;;;;;;13.33;12.33;;;;;36.55;37.72;100304.00;5016163;28;45447;-77
2023/07/08 10:14:08;;;;;;;;;13.00;12.00;;;;;36.39;38.07;100279.94;5016606;28;45355;-77
2023/07/08 10:16:35;;;;;;;;;14.33;13.33;;;;;35.88;39.21;100294.91;5017701;28;45463;-78
2023/07/08 10:19:01;;;;;;;;;13.33;12.33;;;;;35.64;38.86;100292.28;5016438;28;45436;-77
2023/07/08 10:21:52;;;;;;;;;14.00;13.33;;;;;35.63;39.42;100309.56;5015458;28;45944;-77
2023/07/08 10:24:29;;;;;;;;;14.33;14.33;;;;;35.37;39.92;100314.31;5014094;28;45574;-76
2023/07/08 10:27:06;;;;;;;;;14.67;14.00;;;;;35.23;39.41;100309.97;5013572;28;45488;-77
2023/07/08 10:29:41;;;;;;;;;15.67;14.33;;;;;35.39;39.84;100315.06;5013382;28;45289;-76
2023/07/08 10:32:10;;;;;;;;;12.33;12.00;;;;;34.87;41.79;100319.91;5015700;28;45340;-76
2023/07/08 10:35:21;;;;;;;;;13.67;13.33;;;;;35.04;40.47;100321.34;5015638;28;45637;-74
2023/07/08 10:38:18;;;;;;;;;19.67;19.33;;;;;34.83;40.74;100324.69;4952671;28;45434;-74
2023/07/08 10:40:56;;;;;;;;;16.33;16.33;;;;;34.75;40.98;100313.56;4954029;28;45567;-75
2023/07/08 10:43:33;;;;;;;;;16.00;16.00;;;;;34.58;41.40;100316.63;5003928;28;46321;-77
2023/07/08 10:46:16;;;;;;;;;15.67;14.67;;;;;34.71;41.41;100328.34;5015845;28;45518;-77
2023/07/08 10:49:00;;;;;;;;;20.00;17.33;;;;;34.62;41.55;100327.16;5016245;28;45358;-77
2023/07/08 10:51:58;;;;;;;;;19.00;17.00;;;;;34.30;41.38;100309.66;5016154;28;45462;-77
2023/07/08 10:54:55;;;;;;;;;18.67;17.67;;;;;34.24;41.93;100324.53;5016444;28;45558;-78
2023/07/08 10:57:48;;;;;;;;;17.67;16.67;;;;;34.55;41.67;100333.16;5020052;28;45320;-78
2023/07/08 11:00:40;;;;;;;;;16.33;16.00;;;;;34.24;42.72;100328.13;5019685;28;45451;-77
2023/07/08 11:03:32;;;;;;;;;15.67;15.00;;;;;34.52;41.82;100336.97;5019814;28;45487;-78
2023/07/08 11:06:13;;;;;;;;;19.00;18.00;;;;;34.37;41.19;100283.84;5019022;28;45494;-78
2023/07/08 11:09:01;;;;;;;;;20.67;19.00;;;;;34.45;41.63;100328.38;5019245;28;45418;-78
2023/07/08 11:11:40;;;;;;;;;16.67;16.33;;;;;34.44;41.96;100323.06;5019864;28;45499;-78
2023/07/08 11:14:27;;;;;;;;;15.00;15.00;;;;;34.90;41.49;100329.66;5019757;28;45184;-78
2023/07/08 11:17:09;;;;;;;;;17.67;16.33;;;;;35.32;40.80;100320.13;5019386;28;45318;-78
2023/07/08 11:19:43;;;;;;;;;20.33;19.00;;;;;35.48;39.98;100318.94;5018981;28;45509;-77
2023/07/08 11:22:12;;;;;;;;;20.00;18.33;;;;;35.12;40.52;100302.63;5019266;28;45479;-78
2023/07/08 11:24:43;;;;;;;;;18.00;18.00;;;;;34.84;41.28;100326.44;5019697;28;45475;-78